Список аэропортов
Фактическая погода:

25 августа, 21:00
Температура: +26°C (+26.0*)
Ветер: сев.-восточный 5 м/с
Давление: *762 мм
Без существ. явл.
Время (МСК)Темп. СВетерВлажностьДавлениеОблачностьОсадки
21:00+27С, 4 м/с58%1016 гПаясно
22:00+26СЗ, 4 м/с64%1016 гПаясно
23:00+26С, 4 м/с68%1016 гПаясно
26 августа
00:00+25С, 3 м/с73%1016 гПаясно
01:00+23С, 3 м/с79%1016 гПаясно
02:00+23СВ, 3 м/с75%1016 гПаясно
03:00+22СВ, 3 м/с72%1016 гПаясно
04:00+22С, 3 м/с72%1016 гПаясно
05:00+22С, 5 м/с62%1017 гПаясно
06:00+21С, 4 м/с59%1017 гПаясно
07:00+22С, 5 м/с56%1018 гПаясно
08:00+24СВ, 5 м/с48%1018 гПаясно
09:00+27СВ, 5 м/с40%1018 гПаясно
10:00+29С, 6 м/с34%1018 гПаясно
11:00+31С, 6 м/с30%1018 гПаясно
12:00+32С, 7 м/с28%1017 гПаясно
13:00+33С, 7 м/с26%1017 гПаясно
14:00+34С, 7 м/с24%1017 гПаясно
15:00+34С, 7 м/с24%1016 гПаясно
16:00+33С, 7 м/с25%1016 гПаясно
17:00+32С, 8 м/с31%1016 гПаясно
18:00+30С, 9 м/с36%1016 гПаясно
19:00+28С, 9 м/с39%1016 гПаясно
20:00+27С, 8 м/с42%1016 гПаясно
21:00+27С, 7 м/с41%1016 гПаясно
22:00+26С, 6 м/с40%1016 гПаясно
23:00+26С, 5 м/с40%1016 гПаясно
27 августа
00:00+25С, 5 м/с41%1016 гПаясно
01:00+24С, 5 м/с42%1016 гПаясно
02:00+24С, 4 м/с42%1016 гПаясно
03:00+23С, 4 м/с42%1016 гПаясно
04:00+22С, 4 м/с43%1016 гПаясно
05:00+21С, 4 м/с44%1016 гПаясно
06:00+20С, 4 м/с46%1016 гПаясно
07:00+21С, 4 м/с46%1016 гПаясно
08:00+23СВ, 4 м/с41%1016 гПаясно
09:00+26С, 4 м/с39%1016 гПаясно
10:00+28С, 4 м/с37%1016 гПаясно
11:00+30С, 4 м/с34%1016 гПаясно
12:00+31СЗ, 5 м/с33%1016 гПаясно
13:00+31СЗ, 6 м/с35%1015 гПаясно
14:00+31СЗ, 7 м/с36%1015 гПаясно
15:00+31СЗ, 7 м/с34%1015 гПаясно
16:00+31СЗ, 7 м/с31%1015 гПаясно
17:00+29СЗ, 8 м/с38%1015 гПаясно
18:00+28СЗ, 8 м/с38%1015 гПаясно
19:00+26СЗ, 6 м/с38%1015 гПаясно
20:00+25СЗ, 5 м/с43%1015 гПаясно
21:00+24С, 5 м/с52%1016 гПаясно